createdAt,value
2019-05-03T00:03:08.917Z,71.80
2019-05-03T00:06:22.694Z,71.45
2019-05-03T00:09:36.277Z,71.94
2019-05-03T00:12:49.997Z,72.14
2019-05-03T00:16:13.074Z,72.12
2019-05-03T00:19:26.770Z,72.59
2019-05-03T00:22:41.878Z,73.13
2019-05-03T00:25:55.820Z,73.12
2019-05-03T00:29:09.310Z,73.39
2019-05-03T00:32:24.910Z,73.83
2019-05-03T00:35:58.145Z,73.55
2019-05-03T00:39:18.474Z,73.74
2019-05-03T00:42:32.235Z,74.25
2019-05-03T00:45:46.334Z,74.08
2019-05-03T00:49:00.150Z,74.10
2019-05-03T00:52:13.970Z,74.18
2019-05-03T00:55:27.476Z,74.03
2019-05-03T00:58:53.001Z,73.91
2019-05-03T01:02:06.611Z,73.84
2019-05-03T01:05:20.224Z,73.83
2019-05-03T01:08:33.719Z,73.73
2019-05-03T01:11:47.396Z,73.94
2019-05-03T01:15:03.232Z,73.87
2019-05-03T01:18:19.161Z,73.90
2019-05-03T01:21:32.744Z,73.59
2019-05-03T01:24:46.350Z,73.97
2019-05-03T01:28:01.532Z,74.00
2019-05-03T01:31:15.033Z,74.71
2019-05-03T01:34:28.867Z,74.66
2019-05-03T01:37:42.567Z,75.00
2019-05-03T01:41:54.324Z,75.02
2019-05-03T01:45:08.009Z,74.99
2019-05-03T01:48:32.586Z,75.37
2019-05-03T01:52:07.838Z,75.33
2019-05-03T01:55:23.759Z,74.82
2019-05-03T01:58:37.261Z,73.94
2019-05-03T02:02:08.778Z,73.82
2019-05-03T02:05:42.676Z,72.04
2019-05-03T02:08:55.825Z,71.78
2019-05-03T02:12:09.709Z,72.48
2019-05-03T02:15:23.316Z,71.96
2019-05-03T02:18:36.801Z,71.13
2019-05-03T02:21:52.354Z,70.94
2019-05-03T02:25:06.748Z,70.13
2019-05-03T02:28:22.074Z,69.69
2019-05-03T02:31:36.034Z,68.55
2019-05-03T02:34:49.511Z,68.75
2019-05-03T02:38:03.731Z,69.13
2019-05-03T02:41:17.492Z,69.76
2019-05-03T02:44:31.688Z,69.98
2019-05-03T02:48:10.926Z,68.98
2019-05-03T02:51:26.033Z,69.83
2019-05-03T02:54:39.985Z,69.69
2019-05-03T02:57:56.061Z,69.71
2019-05-03T03:01:09.554Z,69.44
2019-05-03T03:04:25.985Z,68.01
2019-05-03T03:07:45.904Z,67.82
2019-05-03T03:11:01.207Z,69.10
2019-05-03T03:14:17.105Z,68.96
2019-05-03T03:17:36.378Z,69.43
2019-05-03T03:20:51.876Z,69.39
2019-05-03T03:24:08.704Z,70.24
2019-05-03T03:27:25.633Z,70.12
2019-05-03T03:31:11.841Z,70.82
2019-05-03T03:34:30.311Z,71.88
2019-05-03T03:37:46.180Z,72.14
2019-05-03T03:41:01.364Z,72.65
2019-05-03T03:44:18.057Z,72.07
2019-05-03T03:47:36.454Z,72.83
2019-05-03T03:50:50.125Z,73.42
2019-05-03T03:54:06.064Z,73.37
2019-05-03T03:57:21.729Z,73.92
2019-05-03T04:00:36.270Z,74.17
2019-05-03T04:03:50.364Z,73.76
2019-05-03T04:07:06.615Z,74.41
2019-05-03T04:10:20.681Z,74.24
2019-05-03T04:13:36.156Z,74.26
2019-05-03T04:16:57.783Z,74.85
2019-05-03T04:20:11.886Z,74.79
2019-05-03T04:23:26.734Z,74.75
2019-05-03T04:26:40.773Z,74.50
2019-05-03T04:29:55.724Z,75.62
2019-05-03T04:33:09.339Z,75.76
2019-05-03T04:36:23.010Z,76.84
2019-05-03T04:39:36.515Z,76.41
2019-05-03T04:42:50.032Z,75.93
2019-05-03T04:46:18.343Z,75.70
2019-05-03T04:49:31.829Z,74.99
2019-05-03T04:52:46.389Z,75.32
2019-05-03T04:56:00.386Z,75.82
2019-05-03T04:59:15.856Z,76.61
2019-05-03T05:02:29.436Z,77.04
2019-05-03T05:05:45.325Z,77.13
2019-05-03T05:08:58.407Z,77.66
2019-05-03T05:16:35.646Z,77.49
2019-05-03T05:20:02.072Z,77.60
2019-05-03T05:23:15.900Z,77.14
2019-05-03T05:26:39.309Z,77.39
2019-05-03T05:29:52.911Z,76.90
2019-05-03T05:33:09.100Z,76.69
2019-05-03T05:37:07.271Z,76.53
2019-05-03T05:40:24.443Z,75.47
2019-05-03T05:43:37.827Z,74.48
2019-05-03T05:47:00.770Z,72.94
2019-05-03T05:50:25.230Z,71.87
2019-05-03T05:53:38.918Z,71.15
2019-05-03T05:57:02.697Z,71.21
2019-05-03T06:00:26.242Z,71.60
2019-05-03T06:03:39.731Z,70.60
2019-05-03T06:07:11.639Z,70.74
2019-05-03T06:10:56.967Z,71.03
2019-05-03T06:14:34.685Z,71.43
2019-05-03T06:17:53.229Z,70.64
2019-05-03T06:21:19.524Z,70.70
2019-05-03T06:24:37.978Z,71.34
2019-05-03T06:27:51.605Z,70.76
2019-05-03T06:31:30.649Z,70.58
2019-05-03T06:34:45.542Z,70.57
2019-05-03T06:37:59.477Z,70.38
2019-05-03T06:41:15.055Z,69.21
2019-05-03T06:44:28.821Z,69.13
2019-05-03T06:47:46.054Z,68.34
2019-05-03T06:51:00.253Z,68.13
2019-05-03T06:54:15.538Z,67.18
2019-05-03T06:57:28.737Z,66.38
2019-05-03T07:00:55.438Z,65.94
2019-05-03T07:04:15.123Z,65.53
2019-05-03T07:07:54.784Z,65.06
2019-05-03T07:11:08.873Z,65.80
2019-05-03T07:14:24.560Z,65.87
2019-05-03T07:17:37.851Z,65.00
2019-05-03T07:20:57.084Z,64.20
2019-05-03T07:24:11.022Z,65.55
2019-05-03T07:27:24.923Z,64.60
2019-05-03T07:30:38.970Z,65.64
2019-05-03T07:33:52.439Z,64.49
2019-05-03T07:37:06.094Z,64.88
2019-05-03T07:40:19.550Z,64.00
2019-05-03T07:43:33.020Z,59.96
2019-05-03T07:46:46.511Z,57.47
2019-05-03T07:50:00.436Z,57.98
2019-05-03T07:53:15.093Z,56.93
2019-05-03T07:56:35.494Z,57.23
2019-05-03T07:59:49.151Z,57.83
2019-05-03T08:03:05.040Z,57.31
2019-05-03T08:06:19.138Z,58.80
2019-05-03T08:09:34.875Z,59.77
2019-05-03T08:12:48.200Z,58.64
2019-05-03T08:16:01.686Z,58.80
2019-05-03T08:19:15.392Z,58.35
2019-05-03T08:22:28.965Z,57.22
2019-05-03T08:25:44.544Z,56.86
2019-05-03T08:28:58.301Z,58.12
2019-05-03T08:32:26.572Z,55.30
2019-05-03T08:35:42.271Z,54.50
2019-05-03T08:38:56.399Z,55.03
2019-05-03T08:42:19.700Z,55.73
2019-05-03T08:45:34.721Z,55.97
2019-05-03T08:48:48.505Z,53.41
2019-05-03T08:52:02.244Z,53.48
2019-05-03T08:55:16.111Z,52.71
2019-05-03T08:58:29.916Z,52.54
2019-05-03T09:01:45.435Z,51.70
2019-05-03T09:04:59.623Z,52.41
2019-05-03T09:08:15.584Z,52.73
2019-05-03T09:11:33.998Z,52.46
2019-05-03T09:14:47.990Z,49.55
2019-05-03T09:17:59.923Z,50.68
2019-05-03T09:21:14.814Z,48.62
2019-05-03T09:24:28.863Z,48.96
2019-05-03T09:27:44.565Z,50.37
2019-05-03T09:30:58.347Z,52.18
2019-05-03T09:34:11.854Z,50.23
2019-05-03T09:37:25.678Z,50.91
2019-05-03T09:40:39.594Z,46.68
2019-05-03T09:43:55.301Z,44.05
2019-05-03T09:47:08.746Z,46.29
2019-05-03T09:50:22.236Z,45.56
2019-05-03T09:53:44.672Z,46.73
2019-05-03T09:56:59.237Z,47.44
2019-05-03T10:00:16.207Z,45.18
2019-05-03T10:03:29.861Z,47.01
2019-05-03T10:06:45.210Z,44.57
2019-05-03T10:09:58.901Z,44.14
2019-05-03T10:13:16.808Z,44.18
2019-05-03T10:16:31.235Z,44.96
2019-05-03T10:19:45.183Z,44.02
2019-05-03T10:23:06.387Z,45.26
2019-05-03T10:26:20.173Z,47.27
2019-05-03T10:29:34.021Z,45.70
2019-05-03T10:32:53.261Z,45.64
2019-05-03T10:36:06.834Z,44.75
2019-05-03T10:39:20.539Z,45.99
2019-05-03T10:42:35.289Z,45.05
2019-05-03T10:45:49.099Z,44.62
2019-05-03T10:49:03.127Z,43.26
2019-05-03T10:52:17.432Z,42.63
2019-05-03T10:55:30.953Z,43.49
2019-05-03T10:58:50.218Z,44.09
2019-05-03T11:02:22.308Z,43.56
2019-05-03T11:05:35.834Z,40.77
2019-05-03T11:08:49.331Z,41.41
2019-05-03T11:12:05.361Z,42.30
2019-05-03T11:15:19.231Z,42.90
2019-05-03T11:18:34.598Z,42.94
2019-05-03T11:21:48.447Z,43.64
2019-05-03T11:25:02.740Z,42.87
2019-05-03T11:28:21.302Z,44.85
2019-05-03T11:31:49.572Z,43.75
2019-05-03T11:35:29.599Z,44.97
2019-05-03T11:38:45.537Z,44.27
2019-05-03T11:41:59.365Z,44.18
2019-05-03T11:45:15.240Z,44.02
2019-05-03T11:48:29.630Z,43.05
2019-05-03T11:51:44.634Z,43.93
2019-05-03T11:54:58.252Z,43.49
2019-05-03T11:58:21.475Z,43.65
2019-05-03T12:01:44.926Z,41.54
2019-05-03T12:04:59.526Z,40.35
2019-05-03T12:08:14.732Z,41.72
2019-05-03T12:11:30.417Z,41.10
2019-05-03T12:17:11.673Z,41.67
2019-05-03T12:19:59.292Z,41.25
2019-05-03T12:23:16.047Z,41.37
2019-05-03T12:26:40.612Z,39.37
2019-05-03T12:29:44.813Z,39.07
2019-05-03T12:32:58.488Z,38.98
2019-05-03T12:36:12.063Z,40.23
2019-05-03T12:39:30.134Z,39.22
2019-05-03T12:42:41.708Z,39.07
2019-05-03T12:45:55.602Z,40.45
2019-05-03T12:49:09.099Z,39.46
2019-05-03T12:52:25.721Z,38.69
2019-05-03T12:55:38.463Z,38.71
2019-05-03T12:59:02.912Z,37.36
2019-05-03T13:02:27.853Z,37.63
2019-05-03T13:05:41.388Z,39.13
2019-05-03T13:08:54.913Z,38.83
2019-05-03T13:12:10.217Z,39.71
2019-05-03T13:15:24.511Z,37.68
2019-05-03T13:18:38.328Z,36.80
2019-05-03T13:21:52.206Z,38.25
2019-05-03T13:25:07.528Z,36.21
2019-05-03T13:28:21.161Z,37.21
2019-05-03T13:31:34.860Z,39.03
2019-05-03T13:34:49.215Z,39.00
2019-05-03T13:38:02.919Z,40.49
2019-05-03T13:41:16.405Z,38.61
2019-05-03T13:44:30.568Z,39.86
2019-05-03T13:47:44.719Z,41.92
2019-05-03T13:50:59.427Z,42.20
2019-05-03T13:54:14.603Z,42.72
2019-05-03T13:57:28.876Z,45.27
2019-05-03T14:00:42.492Z,44.24
2019-05-03T14:03:56.442Z,45.09
2019-05-03T14:07:10.067Z,44.70
2019-05-03T14:10:25.074Z,46.42
2019-05-03T14:13:39.261Z,46.51
2019-05-03T14:16:54.735Z,44.90
2019-05-03T14:20:28.778Z,43.28
2019-05-03T14:24:00.738Z,43.63
2019-05-03T14:27:16.993Z,44.96
2019-05-03T14:30:30.090Z,45.02
2019-05-03T14:33:44.890Z,45.62
2019-05-03T14:36:58.510Z,44.75
2019-05-03T14:40:14.552Z,45.18
2019-05-03T14:43:28.456Z,45.29
2019-05-03T14:46:42.062Z,46.00
2019-05-03T14:49:55.610Z,46.34
2019-05-03T14:53:09.331Z,47.36
2019-05-03T14:56:29.773Z,46.45
2019-05-03T15:00:12.231Z,47.75
2019-05-03T15:03:28.835Z,47.97
2019-05-03T15:06:42.327Z,48.80
2019-05-03T15:09:56.057Z,49.10
2019-05-03T15:13:09.808Z,48.28
2019-05-03T15:16:25.041Z,48.17
2019-05-03T15:19:38.664Z,47.30
2019-05-03T15:22:54.712Z,49.44
2019-05-03T15:26:08.248Z,48.29
2019-05-03T15:29:21.741Z,48.60
2019-05-03T15:32:35.481Z,49.06
2019-05-03T15:35:48.952Z,49.46
2019-05-03T15:39:04.829Z,49.25
2019-05-03T15:42:19.710Z,49.28
2019-05-03T15:45:54.557Z,50.46
2019-05-03T15:49:08.190Z,49.32
2019-05-03T15:52:21.961Z,50.42
2019-05-03T15:55:35.549Z,49.65
2019-05-03T15:58:49.106Z,49.84
2019-05-03T16:02:04.509Z,50.51
2019-05-03T16:05:18.615Z,48.48
2019-05-03T16:08:32.097Z,50.26
2019-05-03T16:11:45.928Z,47.83
2019-05-03T16:14:59.718Z,47.70
2019-05-03T16:18:14.834Z,49.55
2019-05-03T16:21:30.751Z,49.39
2019-05-03T16:24:47.008Z,48.47
2019-05-03T16:28:20.406Z,49.10
2019-05-03T16:31:34.493Z,48.70
2019-05-03T16:34:48.062Z,48.76
2019-05-03T16:38:01.660Z,49.84
2019-05-03T16:41:17.902Z,48.12
2019-05-03T16:44:31.718Z,48.79
2019-05-03T16:47:45.227Z,48.08
2019-05-03T16:50:58.838Z,47.80
2019-05-03T16:54:14.573Z,48.21
2019-05-03T16:57:28.291Z,47.59
2019-05-03T17:00:42.006Z,46.67
2019-05-03T17:04:01.397Z,44.55
2019-05-03T17:07:37.650Z,45.32
2019-05-03T17:10:51.750Z,45.59
2019-05-03T17:14:05.379Z,45.41
2019-05-03T17:17:19.013Z,46.77
2019-05-03T17:20:34.723Z,47.61
2019-05-03T17:23:48.154Z,47.18
2019-05-03T17:27:02.378Z,48.65
2019-05-03T17:30:16.055Z,48.22
2019-05-03T17:33:30.121Z,48.43
2019-05-03T17:36:45.047Z,49.80
2019-05-03T17:40:17.377Z,50.06
2019-05-03T17:44:02.675Z,51.86
2019-05-03T17:47:16.557Z,51.62
2019-05-03T17:50:30.175Z,50.70
2019-05-03T17:53:54.569Z,52.98
2019-05-03T17:57:19.223Z,54.63
2019-05-03T18:00:59.425Z,54.14
2019-05-03T18:04:37.926Z,53.91
2019-05-03T18:08:11.481Z,53.73
2019-05-03T18:11:29.091Z,54.33
2019-05-03T18:14:44.914Z,55.66
2019-05-03T18:17:58.556Z,56.34
2019-05-03T18:21:12.171Z,56.80
2019-05-03T18:24:25.994Z,56.15
2019-05-03T18:27:39.506Z,56.47
2019-05-03T18:30:54.735Z,57.43
2019-05-03T18:34:18.584Z,57.16
2019-05-03T18:37:24.499Z,56.28
2019-05-03T18:40:38.264Z,57.86
2019-05-03T18:44:08.316Z,58.79
2019-05-03T18:47:25.165Z,60.23
2019-05-03T18:50:38.776Z,60.88
2019-05-03T18:53:54.086Z,60.46
2019-05-03T18:57:08.300Z,61.99
2019-05-03T19:00:24.688Z,62.93
2019-05-03T19:03:38.617Z,62.40
2019-05-03T19:07:03.862Z,64.08
2019-05-03T19:10:28.773Z,64.45
2019-05-03T19:13:52.835Z,63.83
2019-05-03T19:17:16.252Z,64.25
2019-05-03T19:20:29.886Z,66.20
2019-05-03T19:23:44.796Z,65.47
2019-05-03T19:26:58.514Z,64.95
2019-05-03T19:30:12.287Z,64.59
2019-05-03T19:33:26.176Z,66.22
2019-05-03T19:36:39.685Z,66.04
2019-05-03T19:39:55.048Z,65.88
2019-05-03T19:43:08.689Z,66.35
2019-05-03T19:46:22.183Z,66.41
2019-05-03T19:49:35.714Z,66.03
2019-05-03T19:53:01.245Z,66.95
2019-05-03T19:56:15.728Z,68.12
2019-05-03T19:59:47.855Z,67.51
2019-05-03T20:03:08.247Z,67.54
2019-05-03T20:09:59.902Z,70.11
2019-05-03T20:13:15.173Z,69.93
2019-05-03T20:16:28.926Z,69.84
2019-05-03T20:19:42.708Z,69.53
2019-05-03T20:22:58.914Z,69.80
2019-05-03T20:26:11.976Z,70.49
2019-05-03T20:29:25.480Z,71.42
2019-05-03T20:32:38.970Z,70.56
2019-05-03T20:35:54.330Z,70.60
2019-05-03T20:39:07.980Z,71.76
2019-05-03T20:42:40.292Z,72.30
2019-05-03T20:46:06.891Z,71.24
2019-05-03T20:49:20.409Z,71.58
2019-05-03T20:52:35.224Z,71.62
2019-05-03T20:55:48.779Z,72.34
2019-05-03T20:59:02.490Z,71.95
2019-05-03T21:02:16.301Z,73.51
2019-05-03T21:05:32.950Z,73.06
2019-05-03T21:08:53.036Z,72.87
2019-05-03T21:12:00.863Z,72.57
2019-05-03T21:16:45.127Z,72.38
2019-05-03T21:20:03.475Z,73.24
2019-05-03T21:23:18.124Z,74.10
2019-05-03T21:26:31.628Z,74.50
2019-05-03T21:29:50.153Z,73.83
2019-05-03T21:33:05.451Z,74.54
2019-05-03T21:36:19.219Z,74.15
2019-05-03T21:39:34.717Z,74.25
2019-05-03T21:42:48.602Z,74.44
2019-05-03T21:46:08.700Z,75.44
2019-05-03T21:49:27.815Z,74.40
2019-05-03T21:52:41.344Z,74.41
2019-05-03T21:55:55.142Z,74.84
2019-05-03T21:59:08.739Z,74.47
2019-05-03T22:02:22.311Z,74.71
2019-05-03T22:05:35.820Z,74.42
2019-05-03T22:08:49.628Z,75.21
2019-05-03T22:12:05.105Z,76.47
2019-05-03T22:15:34.670Z,75.94
2019-05-03T22:18:48.288Z,75.04
2019-05-03T22:22:20.059Z,75.72
2019-05-03T22:25:34.882Z,75.65
2019-05-03T22:28:48.499Z,75.04
2019-05-03T22:32:02.366Z,75.01
2019-05-03T22:35:16.116Z,74.98
2019-05-03T22:38:29.598Z,74.93
2019-05-03T22:41:43.325Z,76.13
2019-05-03T22:44:57.231Z,75.96
2019-05-03T22:48:10.994Z,75.42
2019-05-03T22:51:24.595Z,75.15
2019-05-03T22:54:38.496Z,76.17
2019-05-03T22:57:51.965Z,75.49
2019-05-03T23:01:05.802Z,75.85
2019-05-03T23:04:19.313Z,75.88
2019-05-03T23:07:36.872Z,76.51
2019-05-03T23:10:48.322Z,76.30
2019-05-03T23:14:01.806Z,75.84
2019-05-03T23:17:15.283Z,75.43
2019-05-03T23:20:36.400Z,75.91
2019-05-03T23:23:51.163Z,76.16
2019-05-03T23:27:05.180Z,76.67
2019-05-03T23:30:18.790Z,77.75
2019-05-03T23:33:32.255Z,78.02
2019-05-03T23:36:46.403Z,78.65
2019-05-03T23:39:59.875Z,77.50
2019-05-03T23:43:14.455Z,77.70
2019-05-03T23:46:47.721Z,78.23
2019-05-03T23:50:01.598Z,78.70
2019-05-03T23:53:15.438Z,78.35
2019-05-03T23:56:29.197Z,78.38
2019-05-03T23:59:44.857Z,78.21
